»·PEaware :: UAL576 KLAS-KLAX

UAL576 :: KLAS-KLAX

FLIGHT INFORMATION

Flight Status: Arrived
Operator:
United Airlines
More flights by this operator :: More flights under this callsign
Pilot: Anonymous 8274 (8274)
Aircraft: BOEING 737-200
(B732)
More flights by this aircraft type
Origin: KLAS McCarran Intl
United States
Destination: KLAX Los Angeles Intl
United States
More flights between these airports :: More routes between these airports
Route: +MCCRN5 HEC BASET5
File this flight plan on PilotEdge
Remarks:
Altitude:
(Current/Filed)
28,000ft
Speed:
(Current/Filed)
460kts
Departed: 05-Jul-18 12:06 PM
Arrived: 05-Jul-18 12:51 PM
Distance/Time
Traveled:
205nm/0:45
Distance/Time
To Go:
Arrived

Flight Plot

Page will automatically refresh every two minutes.

Flight plan parsing failed; only flown route is shown


Map Options




Map Legend


Flown Route
Filed Route
Departure Airport
Arrival Airport
Navaid (VOR, NDB)
Fix

Horizontal Profiles

Position Reports

Time Latitude Longitude Heading Altitude Ground
Speed
05-Jul-18 11:37 36.080459 -115.138871 345 2120ft 0kts
05-Jul-18 11:38 36.080459 -115.138871 345 2120ft 0kts
05-Jul-18 11:39 36.080459 -115.138871 345 2120ft 0kts
05-Jul-18 11:40 36.080459 -115.138871 345 2120ft 0kts
05-Jul-18 11:41 36.080459 -115.138871 345 2120ft 0kts
05-Jul-18 11:43 36.080459 -115.138871 345 2120ft 0kts
05-Jul-18 11:44 36.080459 -115.138871 345 2120ft 0kts
05-Jul-18 11:45 36.080459 -115.138871 345 2120ft 0kts
05-Jul-18 11:46 36.080459 -115.138871 345 2120ft 0kts
05-Jul-18 11:47 36.080459 -115.138871 345 2120ft 0kts
05-Jul-18 11:48 36.080460 -115.138871 345 2120ft 0kts
05-Jul-18 11:49 36.080117 -115.138760 345 2120ft 2kts
05-Jul-18 11:50 36.079836 -115.138325 244 2120ft 2kts
05-Jul-18 11:51 36.079883 -115.138237 229 2120ft 0kts
05-Jul-18 11:52 36.079883 -115.138237 229 2120ft 0kts
05-Jul-18 11:53 36.079883 -115.138237 229 2120ft 0kts
05-Jul-18 11:54 36.079883 -115.138237 229 2120ft 0kts
05-Jul-18 11:55 36.079883 -115.138237 229 2120ft 0kts
05-Jul-18 11:56 36.079883 -115.138237 229 2120ft 0kts
05-Jul-18 11:57 36.079234 -115.139050 225 2120ft 6kts
05-Jul-18 11:58 36.079070 -115.139254 225 2120ft 0kts
05-Jul-18 11:59 36.079070 -115.139254 225 2120ft 0kts
05-Jul-18 12:00 36.078242 -115.136140 90 2120ft 24kts
05-Jul-18 12:01 36.078255 -115.126523 89 2120ft 27kts
05-Jul-18 12:02 36.077440 -115.121533 135 2120ft 0kts
05-Jul-18 12:03 36.077440 -115.121533 135 2120ft 0kts
05-Jul-18 12:04 36.077440 -115.121533 135 2120ft 0kts
05-Jul-18 12:05 36.077307 -115.121395 146 2120ft 5kts
05-Jul-18 12:06 36.076399 -115.121455 270 2120ft 0kts
05-Jul-18 12:07 36.076400 -115.130074 271 2120ft 112kts
05-Jul-18 12:08 36.075042 -115.183668 267 3503ft 167kts
05-Jul-18 12:09 36.056743 -115.245939 205 4566ft 243kts
05-Jul-18 12:10 35.990149 -115.282371 202 6711ft 285kts
05-Jul-18 12:11 35.914837 -115.319814 201 6991ft 294kts
05-Jul-18 12:12 35.841557 -115.354906 201 6988ft 286kts
05-Jul-18 12:13 35.767661 -115.390225 201 6996ft 289kts
05-Jul-18 12:14 35.698971 -115.352994 132 8761ft 303kts
05-Jul-18 12:15 35.625055 -115.350537 223 10501ft 321kts
05-Jul-18 12:16 35.562101 -115.429742 228 12859ft 326kts
05-Jul-18 12:17 35.502606 -115.514618 230 14952ft 332kts
05-Jul-18 12:18 35.445546 -115.604902 231 16756ft 340kts
05-Jul-18 12:19 35.397794 -115.680518 227 18063ft 346kts
05-Jul-18 12:20 35.334556 -115.770653 225 19401ft 355kts
05-Jul-18 12:21 35.269167 -115.860436 225 20883ft 358kts
05-Jul-18 12:22 35.200770 -115.949188 223 22324ft 363kts
05-Jul-18 12:23 35.129863 -116.038452 223 23592ft 369kts
05-Jul-18 12:24 35.061623 -116.123866 223 24662ft 373kts
05-Jul-18 12:25 34.987869 -116.213548 221 25679ft 377kts
05-Jul-18 12:26 34.914599 -116.305206 226 26581ft 381kts
05-Jul-18 12:27 34.858730 -116.380025 226 27244ft 384kts
05-Jul-18 12:28 34.786922 -116.475870 226 28029ft 387kts
05-Jul-18 12:29 34.709680 -116.569097 223 28135ft 404kts
05-Jul-18 12:30 34.640045 -116.655654 224 28133ft 419kts
05-Jul-18 12:31 34.589857 -116.720338 225 28129ft 416kts
05-Jul-18 12:32 34.512549 -116.822236 225 28129ft 411kts
05-Jul-18 12:33 34.438429 -116.919999 225 27925ft 384kts
05-Jul-18 12:34 34.367523 -117.014310 225 25378ft 378kts
05-Jul-18 12:35 34.298846 -117.106612 225 23169ft 366kts
05-Jul-18 12:36 34.234285 -117.194226 226 20976ft 357kts
05-Jul-18 12:37 34.171055 -117.280827 226 18901ft 347kts
05-Jul-18 12:38 34.108300 -117.366544 226 16711ft 341kts
05-Jul-18 12:39 34.045199 -117.448289 226 14634ft 334kts
05-Jul-18 12:40 34.006425 -117.543932 262 12540ft 329kts
05-Jul-18 12:41 33.995119 -117.649970 262 10610ft 323kts
05-Jul-18 12:42 33.985249 -117.738433 262 9937ft 287kts
05-Jul-18 12:43 33.974679 -117.831380 262 8492ft 283kts
05-Jul-18 12:44 33.971985 -117.921256 271 7102ft 279kts
05-Jul-18 12:45 33.973670 -118.011641 271 5722ft 274kts
05-Jul-18 12:46 33.965759 -118.094661 261 4509ft 269kts
05-Jul-18 12:47 33.958518 -118.179669 265 3540ft 249kts
05-Jul-18 12:48 33.951570 -118.245280 261 2978ft 194kts
05-Jul-18 12:49 33.944515 -118.303151 268 1597ft 158kts
05-Jul-18 12:50 33.941088 -118.346782 263 688ft 128kts
05-Jul-18 12:51 33.937021 -118.386128 263 117ft 123kts
05-Jul-18 12:52 33.936166 -118.403406 287 111ft 0kts
05-Jul-18 12:53 33.936166 -118.403406 287 111ft 0kts
05-Jul-18 12:54 33.935938 -118.407486 265 112ft 23kts
05-Jul-18 12:55 33.938493 -118.409220 351 112ft 0kts
05-Jul-18 12:56 33.938493 -118.409220 351 112ft 0kts
05-Jul-18 12:57 33.938685 -118.408940 80 111ft 8kts
05-Jul-18 12:58 33.939220 -118.403621 83 111ft 17kts
05-Jul-18 12:59 33.940100 -118.398236 9 111ft 14kts
05-Jul-18 13:00 33.941335 -118.397618 84 111ft 0kts

Navigation Log

Ident Type
Flight plan parsing failed, navigation log unavailable